createdAt,value
2019-01-23T00:00:42.786Z,38.08
2019-01-23T00:03:10.008Z,38.58
2019-01-23T00:05:36.769Z,39.38
2019-01-23T00:08:04.328Z,39.85
2019-01-23T00:10:31.251Z,39.63
2019-01-23T00:12:58.017Z,37.50
2019-01-23T00:15:24.868Z,36.70
2019-01-23T00:17:51.714Z,42.38
2019-01-23T00:20:18.465Z,39.70
2019-01-23T00:22:45.233Z,40.92
2019-01-23T00:25:12.072Z,41.60
2019-01-23T00:27:39.117Z,38.65
2019-01-23T00:30:06.483Z,40.25
2019-01-23T00:32:33.321Z,41.58
2019-01-23T00:35:00.074Z,41.65
2019-01-23T00:37:26.828Z,40.43
2019-01-23T00:39:53.593Z,41.95
2019-01-23T00:42:20.345Z,45.50
2019-01-23T00:44:47.110Z,39.63
2019-01-23T00:47:13.862Z,41.02
2019-01-23T00:49:40.709Z,40.20
2019-01-23T00:52:07.453Z,38.78
2019-01-23T00:54:34.718Z,42.48
2019-01-23T00:57:01.489Z,43.68
2019-01-23T00:59:28.232Z,45.52
2019-01-23T01:01:55.193Z,40.08
2019-01-23T01:04:21.949Z,42.13
2019-01-23T01:06:48.819Z,42.98
2019-01-23T01:09:15.657Z,40.55
2019-01-23T01:11:42.683Z,40.48
2019-01-23T01:14:09.445Z,42.78
2019-01-23T01:16:36.304Z,41.70
2019-01-23T01:19:03.387Z,41.50
2019-01-23T01:21:30.441Z,44.23
2019-01-23T01:23:57.201Z,44.58
2019-01-23T01:26:23.951Z,42.98
2019-01-23T01:28:55.987Z,47.15
2019-01-23T01:31:19.569Z,43.02
2019-01-23T01:33:46.313Z,44.20
2019-01-23T01:36:13.082Z,42.33
2019-01-23T01:38:40.745Z,43.28
2019-01-23T01:41:07.505Z,44.83
2019-01-23T01:43:34.264Z,44.48
2019-01-23T01:46:01.122Z,45.17
2019-01-23T01:48:27.977Z,43.15
2019-01-23T01:50:54.752Z,42.13
2019-01-23T01:53:21.513Z,43.58
2019-01-23T01:55:48.266Z,43.48
2019-01-23T01:58:15.012Z,44.85
2019-01-23T02:00:41.769Z,45.70
2019-01-23T02:03:08.651Z,44.63
2019-01-23T02:05:35.420Z,43.78
2019-01-23T02:08:02.757Z,45.90
2019-01-23T02:10:29.515Z,44.03
2019-01-23T02:12:56.260Z,45.17
2019-01-23T02:15:23.101Z,49.03
2019-01-23T02:17:49.969Z,44.88
2019-01-23T02:20:19.641Z,45.85
2019-01-23T02:22:46.609Z,45.98
2019-01-23T02:25:13.678Z,44.90
2019-01-23T02:27:41.228Z,44.20
2019-01-23T02:30:17.222Z,46.53
2019-01-23T02:32:44.053Z,49.25
2019-01-23T02:35:11.525Z,45.25
2019-01-23T02:37:38.383Z,42.58
2019-01-23T02:40:08.682Z,47.50
2019-01-23T02:42:35.439Z,45.17
2019-01-23T02:45:02.429Z,46.88
2019-01-23T02:47:29.269Z,45.45
2019-01-23T02:49:56.029Z,47.33
2019-01-23T02:52:22.887Z,50.58
2019-01-23T02:54:49.855Z,47.17
2019-01-23T02:57:16.695Z,46.63
2019-01-23T02:59:43.450Z,47.70
2019-01-23T03:02:10.323Z,49.55
2019-01-23T03:04:37.079Z,48.45
2019-01-23T03:07:03.942Z,47.62
2019-01-23T03:09:30.698Z,45.38
2019-01-23T03:11:57.830Z,45.67
2019-01-23T03:14:24.860Z,45.35
2019-01-23T03:16:51.643Z,47.20
2019-01-23T03:19:19.099Z,44.23
2019-01-23T03:21:45.846Z,47.23
2019-01-23T03:24:12.698Z,46.85
2019-01-23T03:26:39.453Z,46.35
2019-01-23T03:29:06.223Z,46.50
2019-01-23T03:31:33.070Z,48.95
2019-01-23T03:33:59.834Z,46.70
2019-01-23T03:36:26.709Z,51.73
2019-01-23T03:38:53.469Z,47.88
2019-01-23T03:41:20.221Z,46.50
2019-01-23T03:43:47.073Z,47.62
2019-01-23T03:46:13.929Z,47.13
2019-01-23T03:48:40.779Z,49.50
2019-01-23T03:51:07.646Z,46.68
2019-01-23T03:53:34.397Z,47.70
2019-01-23T03:56:01.265Z,49.38
2019-01-23T03:58:28.122Z,52.70
2019-01-23T04:00:54.979Z,49.48
2019-01-23T04:03:21.837Z,52.03
2019-01-23T04:05:48.698Z,51.75
2019-01-23T04:08:15.653Z,51.02
2019-01-23T04:10:42.396Z,45.33
2019-01-23T04:13:09.154Z,47.38
2019-01-23T04:15:35.947Z,45.78
2019-01-23T04:18:02.872Z,54.67
2019-01-23T04:20:29.579Z,50.67
2019-01-23T04:22:56.271Z,51.63
2019-01-23T04:25:22.988Z,56.90
2019-01-23T04:27:49.691Z,52.95
2019-01-23T04:30:22.703Z,53.17
2019-01-23T04:32:49.704Z,53.85
2019-01-23T04:35:16.500Z,54.73
2019-01-23T04:37:43.322Z,53.87
2019-01-23T04:40:10.223Z,53.60
2019-01-23T04:42:36.942Z,56.40
2019-01-23T04:45:06.891Z,59.88
2019-01-23T04:47:34.088Z,53.65
2019-01-23T04:50:00.804Z,57.80
2019-01-23T04:52:56.239Z,63.00
2019-01-23T04:55:23.055Z,57.93
2019-01-23T04:57:49.768Z,54.42
2019-01-23T05:00:19.600Z,53.35
2019-01-23T05:02:46.305Z,57.93
2019-01-23T05:05:13.211Z,56.08
2019-01-23T05:07:39.999Z,59.60
2019-01-23T05:10:06.842Z,56.95
2019-01-23T05:12:53.247Z,58.17
2019-01-23T05:15:20.051Z,55.58
2019-01-23T05:17:46.751Z,59.27
2019-01-23T05:20:13.667Z,58.20
2019-01-23T05:22:40.363Z,57.08
2019-01-23T05:25:07.287Z,58.73
2019-01-23T05:27:33.988Z,55.75
2019-01-23T05:30:00.678Z,61.73
2019-01-23T05:32:27.427Z,66.05
2019-01-23T05:34:54.111Z,56.02
2019-01-23T05:37:20.819Z,60.10
2019-01-23T05:39:47.523Z,61.53
2019-01-23T05:42:14.219Z,62.17
2019-01-23T05:44:40.933Z,64.80
2019-01-23T05:47:07.616Z,61.92
2019-01-23T05:49:34.333Z,61.10
2019-01-23T05:52:01.023Z,63.98
2019-01-23T05:54:27.823Z,64.97
2019-01-23T05:56:54.828Z,67.25
2019-01-23T05:59:21.522Z,63.52
2019-01-23T06:01:48.427Z,68.15
2019-01-23T06:04:15.127Z,69.10
2019-01-23T06:06:41.831Z,69.80
2019-01-23T06:09:08.639Z,62.67
2019-01-23T06:11:35.483Z,64.58
2019-01-23T06:14:02.519Z,60.10
2019-01-23T06:16:29.979Z,66.57
2019-01-23T06:18:56.679Z,70.65
2019-01-23T06:21:23.405Z,64.90
2019-01-23T06:23:50.503Z,62.17
2019-01-23T06:26:17.339Z,62.10
2019-01-23T06:28:44.195Z,62.03
2019-01-23T06:31:30.641Z,66.65
2019-01-23T06:33:57.343Z,70.05
2019-01-23T06:36:24.039Z,66.25
2019-01-23T06:38:50.755Z,65.37
2019-01-23T06:41:17.575Z,69.45
2019-01-23T06:43:44.359Z,64.17
2019-01-23T06:46:11.280Z,71.22
2019-01-23T06:48:38.387Z,69.53
2019-01-23T06:51:05.087Z,70.72
2019-01-23T06:53:32.031Z,72.80
2019-01-23T06:55:58.723Z,67.87
2019-01-23T06:58:25.447Z,75.00
2019-01-23T07:00:52.236Z,73.30
2019-01-23T07:03:18.931Z,71.65
2019-01-23T07:05:45.629Z,69.00
2019-01-23T07:08:12.715Z,72.17
2019-01-23T07:10:39.776Z,71.50
2019-01-23T07:13:06.471Z,67.78
2019-01-23T07:15:33.559Z,67.15
2019-01-23T07:18:00.491Z,75.92
2019-01-23T07:20:27.187Z,70.87
2019-01-23T07:22:53.998Z,71.02
2019-01-23T07:25:21.090Z,73.22
2019-01-23T07:27:47.791Z,72.70
2019-01-23T07:30:25.122Z,70.83
2019-01-23T07:32:52.003Z,70.45
2019-01-23T07:35:18.699Z,70.80
2019-01-23T07:37:45.443Z,67.08
2019-01-23T07:40:12.348Z,74.27
2019-01-23T07:42:39.149Z,70.57
2019-01-23T07:45:07.379Z,72.90
2019-01-23T07:47:34.083Z,64.70
2019-01-23T07:50:00.886Z,69.90
2019-01-23T07:52:27.575Z,66.77
2019-01-23T07:54:54.268Z,70.65
2019-01-23T07:57:20.961Z,64.05
2019-01-23T07:59:47.652Z,67.60
2019-01-23T08:02:14.470Z,69.55
2019-01-23T08:04:41.171Z,69.67
2019-01-23T08:07:07.971Z,67.85
2019-01-23T08:09:34.673Z,67.10
2019-01-23T08:12:01.367Z,64.45
2019-01-23T08:14:28.075Z,65.00
2019-01-23T08:16:54.774Z,72.75
2019-01-23T08:19:21.459Z,66.02
2019-01-23T08:21:48.160Z,67.10
2019-01-23T08:24:14.861Z,66.97
2019-01-23T08:26:41.770Z,72.55
2019-01-23T08:29:08.575Z,65.25
2019-01-23T08:31:35.263Z,66.50
2019-01-23T08:34:01.972Z,67.35
2019-01-23T08:36:28.759Z,65.28
2019-01-23T08:38:55.576Z,65.85
2019-01-23T08:41:22.279Z,66.37
2019-01-23T08:43:49.089Z,66.67
2019-01-23T08:46:15.799Z,68.60
2019-01-23T08:48:42.599Z,67.10
2019-01-23T08:51:09.423Z,67.08
2019-01-23T08:53:36.122Z,65.83
2019-01-23T08:56:03.968Z,70.83
2019-01-23T08:58:30.690Z,64.27
2019-01-23T09:00:57.399Z,64.97
2019-01-23T09:03:24.103Z,64.75
2019-01-23T09:05:50.803Z,75.12
2019-01-23T09:08:17.843Z,70.35
2019-01-23T09:10:44.750Z,62.98
2019-01-23T09:13:11.455Z,67.05
2019-01-23T09:15:38.175Z,65.62
2019-01-23T09:18:05.284Z,62.43
2019-01-23T09:20:32.003Z,63.60
2019-01-23T09:22:58.817Z,71.72
2019-01-23T09:25:25.743Z,68.45
2019-01-23T09:27:52.671Z,63.23
2019-01-23T09:30:28.894Z,63.38
2019-01-23T09:33:03.856Z,66.55
2019-01-23T09:35:47.567Z,60.98
2019-01-23T09:38:43.204Z,59.50
2019-01-23T09:41:47.635Z,70.10
2019-01-23T09:44:58.898Z,63.75
2019-01-23T09:47:31.875Z,65.92
2019-01-23T09:50:29.231Z,52.65
2019-01-23T09:53:24.445Z,65.78
2019-01-23T09:55:51.298Z,61.42
2019-01-23T09:58:18.010Z,64.17
2019-01-23T10:00:44.851Z,59.70
2019-01-23T10:03:11.673Z,64.62
2019-01-23T10:05:38.569Z,67.22
2019-01-23T10:08:05.515Z,67.42
2019-01-23T10:10:32.838Z,63.75
2019-01-23T10:12:59.607Z,61.40
2019-01-23T10:15:36.404Z,62.33
2019-01-23T10:18:03.319Z,62.10
2019-01-23T10:20:30.035Z,69.72
2019-01-23T10:22:56.747Z,65.78
2019-01-23T10:25:23.491Z,63.83
2019-01-23T10:27:50.179Z,64.87
2019-01-23T10:30:20.779Z,60.43
2019-01-23T10:32:47.903Z,66.90
2019-01-23T10:35:14.775Z,66.30
2019-01-23T10:37:41.475Z,67.60
2019-01-23T10:40:11.193Z,68.62
2019-01-23T10:42:37.906Z,63.17
2019-01-23T10:45:05.127Z,63.25
2019-01-23T10:47:31.858Z,68.70
2019-01-23T10:49:58.560Z,73.55
2019-01-23T10:52:25.263Z,67.35
2019-01-23T10:54:51.962Z,65.10
2019-01-23T10:57:18.879Z,66.85
2019-01-23T10:59:45.695Z,66.62
2019-01-23T11:02:12.503Z,67.10
2019-01-23T11:04:39.335Z,65.15
2019-01-23T11:07:06.147Z,71.15
2019-01-23T11:09:32.848Z,64.30
2019-01-23T11:11:59.559Z,66.65
2019-01-23T11:14:26.710Z,64.30
2019-01-23T11:16:53.515Z,64.67
2019-01-23T11:19:20.315Z,63.73
2019-01-23T11:21:47.028Z,65.03
2019-01-23T11:24:13.747Z,66.92
2019-01-23T11:26:40.665Z,66.67
2019-01-23T11:29:07.459Z,63.17
2019-01-23T11:31:34.252Z,65.05
2019-01-23T11:34:01.051Z,64.07
2019-01-23T11:36:27.745Z,67.40
2019-01-23T11:38:54.468Z,65.32
2019-01-23T11:41:21.287Z,65.30
2019-01-23T11:43:47.983Z,72.05
2019-01-23T11:46:14.799Z,66.35
2019-01-23T11:48:41.890Z,70.85
2019-01-23T11:51:08.692Z,64.75
2019-01-23T11:53:35.508Z,70.78
2019-01-23T11:56:02.424Z,67.35
2019-01-23T11:58:29.123Z,65.50
2019-01-23T12:00:55.928Z,66.75
2019-01-23T12:03:22.727Z,66.55
2019-01-23T12:05:49.987Z,62.58
2019-01-23T12:08:17.231Z,64.72
2019-01-23T12:10:43.976Z,63.17
2019-01-23T12:13:11.328Z,63.28
2019-01-23T12:15:40.930Z,65.12
2019-01-23T12:18:06.749Z,69.10
2019-01-23T12:20:33.555Z,67.58
2019-01-23T12:23:00.290Z,64.75
2019-01-23T12:25:27.001Z,70.90
2019-01-23T12:27:53.725Z,61.37
2019-01-23T12:30:29.312Z,66.33
2019-01-23T12:32:56.223Z,68.40
2019-01-23T12:35:23.030Z,68.28
2019-01-23T12:37:49.736Z,66.22
2019-01-23T12:40:16.891Z,67.12
2019-01-23T12:42:43.860Z,66.72
2019-01-23T12:45:14.358Z,72.00
2019-01-23T12:47:41.163Z,68.05
2019-01-23T12:50:09.982Z,67.78
2019-01-23T12:52:36.788Z,70.52
2019-01-23T12:55:04.972Z,77.25
2019-01-23T12:57:31.678Z,73.30
2019-01-23T13:00:04.889Z,71.17
2019-01-23T13:02:27.071Z,68.17
2019-01-23T13:04:53.791Z,69.82
2019-01-23T13:07:20.913Z,71.62
2019-01-23T13:09:47.611Z,66.02
2019-01-23T13:12:14.518Z,68.50
2019-01-23T13:14:41.239Z,68.07
2019-01-23T13:17:08.051Z,72.87
2019-01-23T13:19:35.142Z,69.40
2019-01-23T13:22:02.267Z,67.35
2019-01-23T13:24:29.075Z,72.22
2019-01-23T13:26:55.871Z,70.60
2019-01-23T13:29:23.206Z,70.10
2019-01-23T13:31:50.402Z,69.80
2019-01-23T13:34:17.218Z,69.17
2019-01-23T13:36:44.021Z,72.60
2019-01-23T13:39:14.819Z,71.33
2019-01-23T13:41:41.532Z,73.12
2019-01-23T13:44:08.327Z,71.22
2019-01-23T13:46:35.054Z,69.97
2019-01-23T13:49:01.755Z,70.12
2019-01-23T13:51:28.571Z,67.03
2019-01-23T13:53:55.469Z,66.60
2019-01-23T13:56:22.406Z,67.12
2019-01-23T13:58:49.123Z,67.32
2019-01-23T14:01:15.827Z,74.50
2019-01-23T14:03:42.635Z,65.97
2019-01-23T14:06:09.335Z,70.30
2019-01-23T14:08:36.049Z,68.90
2019-01-23T14:11:02.854Z,74.60
2019-01-23T14:13:29.567Z,72.45
2019-01-23T14:15:56.309Z,70.28
2019-01-23T14:18:23.075Z,75.55
2019-01-23T14:20:49.883Z,68.62
2019-01-23T14:23:16.698Z,58.38
2019-01-23T14:25:43.390Z,67.47
2019-01-23T14:28:10.287Z,73.55
2019-01-23T14:30:42.292Z,68.67
2019-01-23T14:33:09.424Z,71.95
2019-01-23T14:35:37.952Z,71.22
2019-01-23T14:38:05.859Z,69.30
2019-01-23T14:40:32.635Z,71.53
2019-01-23T14:42:59.492Z,68.67
2019-01-23T14:45:27.472Z,75.12
2019-01-23T14:47:54.798Z,76.22
2019-01-23T14:50:21.688Z,72.45
2019-01-23T14:52:48.865Z,69.05
2019-01-23T14:55:15.776Z,72.30
2019-01-23T14:57:44.204Z,68.37
2019-01-23T15:00:14.734Z,69.82
2019-01-23T15:02:41.607Z,71.42
2019-01-23T15:05:08.641Z,73.52
2019-01-23T15:07:35.344Z,75.17
2019-01-23T15:10:03.169Z,73.12
2019-01-23T15:12:30.123Z,75.03
2019-01-23T15:14:56.853Z,73.05
2019-01-23T15:17:23.759Z,73.83
2019-01-23T15:19:50.772Z,69.25
2019-01-23T15:22:17.476Z,72.37
2019-01-23T15:24:44.195Z,70.87
2019-01-23T15:27:10.901Z,72.50
2019-01-23T15:29:37.677Z,73.75
2019-01-23T15:32:04.587Z,71.40
2019-01-23T15:34:31.398Z,69.80
2019-01-23T15:36:58.119Z,73.20
2019-01-23T15:39:27.933Z,68.72
2019-01-23T15:41:54.747Z,74.87
2019-01-23T15:44:21.463Z,70.60
2019-01-23T15:46:48.171Z,74.53
2019-01-23T15:49:14.891Z,75.15
2019-01-23T15:51:41.624Z,70.15
2019-01-23T15:54:08.343Z,73.57
2019-01-23T15:56:35.087Z,70.52
2019-01-23T15:59:01.919Z,74.55
2019-01-23T16:01:28.719Z,73.42
2019-01-23T16:03:55.438Z,73.62
2019-01-23T16:06:22.368Z,71.10
2019-01-23T16:08:49.124Z,67.05
2019-01-23T16:11:15.927Z,67.97
2019-01-23T16:13:42.636Z,74.00
2019-01-23T16:16:09.351Z,73.07
2019-01-23T16:18:36.340Z,78.00
2019-01-23T16:21:03.155Z,73.75
2019-01-23T16:23:29.975Z,70.90
2019-01-23T16:25:56.808Z,71.67
2019-01-23T16:28:23.532Z,69.37
2019-01-23T16:30:50.241Z,73.62
2019-01-23T16:33:16.947Z,76.65
2019-01-23T16:35:43.766Z,69.50
2019-01-23T16:38:10.724Z,70.52
2019-01-23T16:40:37.739Z,73.28
2019-01-23T16:43:24.079Z,78.67
2019-01-23T16:45:50.803Z,76.67
2019-01-23T16:48:17.599Z,72.85
2019-01-23T16:50:44.355Z,75.78
2019-01-23T16:53:11.184Z,68.90
2019-01-23T16:55:38.271Z,76.85
2019-01-23T16:58:07.543Z,75.83
2019-01-23T17:00:35.144Z,76.50
2019-01-23T17:03:03.335Z,75.32
2019-01-23T17:05:31.240Z,72.15
2019-01-23T17:08:00.273Z,76.53
2019-01-23T17:10:27.397Z,73.52
2019-01-23T17:12:54.377Z,73.00
2019-01-23T17:15:21.416Z,74.22
2019-01-23T17:17:48.462Z,74.10
2019-01-23T17:20:21.175Z,69.53
2019-01-23T17:22:47.879Z,75.97
2019-01-23T17:25:15.078Z,75.32
2019-01-23T17:27:41.981Z,78.83
2019-01-23T17:30:15.992Z,76.90
2019-01-23T18:42:48.246Z,66.22
2019-01-23T18:45:57.163Z,60.78
2019-01-23T18:49:09.031Z,62.00
2019-01-23T18:51:44.528Z,61.65
2019-01-23T18:54:11.237Z,59.25
2019-01-23T18:56:37.931Z,63.78
2019-01-23T18:59:05.450Z,65.37
2019-01-23T19:01:32.159Z,64.90
2019-01-23T19:03:58.970Z,67.45
2019-01-23T19:06:25.683Z,65.28
2019-01-23T19:08:53.035Z,66.72
2019-01-23T19:11:20.335Z,63.60
2019-01-23T19:13:47.039Z,68.02
2019-01-23T19:16:14.063Z,71.20
2019-01-23T19:18:40.907Z,67.12
2019-01-23T19:21:07.620Z,70.15
2019-01-23T19:23:34.544Z,62.67
2019-01-23T19:26:01.359Z,66.55
2019-01-23T19:28:28.064Z,62.80
2019-01-23T19:30:54.855Z,64.32
2019-01-23T19:33:21.671Z,71.07
2019-01-23T19:35:48.498Z,70.90
2019-01-23T19:38:15.308Z,65.12
2019-01-23T19:40:42.023Z,65.40
2019-01-23T19:43:08.719Z,74.50
2019-01-23T19:45:35.632Z,67.60
2019-01-23T19:48:02.645Z,68.85
2019-01-23T19:50:29.357Z,64.15
2019-01-23T19:52:56.065Z,71.28
2019-01-23T19:55:22.784Z,72.05
2019-01-23T19:57:49.487Z,64.37
2019-01-23T20:00:18.871Z,66.17
2019-01-23T20:02:45.835Z,61.65
2019-01-23T20:05:15.471Z,64.72
2019-01-23T20:07:42.716Z,65.40
2019-01-23T20:10:14.450Z,61.60
2019-01-23T20:12:40.289Z,62.17
2019-01-23T20:15:09.041Z,62.17
2019-01-23T20:17:35.949Z,61.80
2019-01-23T20:20:04.168Z,62.13
2019-01-23T20:22:30.891Z,58.70
2019-01-23T20:24:57.583Z,62.80
2019-01-23T20:27:24.287Z,62.43
2019-01-23T20:29:50.991Z,64.87
2019-01-23T20:32:17.700Z,62.40
2019-01-23T20:34:44.406Z,62.98
2019-01-23T20:37:11.107Z,61.40
2019-01-23T20:39:37.819Z,61.88
2019-01-23T20:42:04.732Z,64.58
2019-01-23T20:44:31.431Z,65.87
2019-01-23T20:46:58.131Z,61.92
2019-01-23T20:49:25.052Z,70.95
2019-01-23T20:51:51.752Z,61.30
2019-01-23T20:54:18.563Z,61.60
2019-01-23T20:56:45.367Z,62.98
2019-01-23T20:59:12.097Z,64.10
2019-01-23T21:01:38.799Z,57.62
2019-01-23T21:04:05.727Z,64.58
2019-01-23T21:06:32.549Z,63.40
2019-01-23T21:08:59.356Z,62.83
2019-01-23T21:11:26.315Z,63.95
2019-01-23T21:13:53.027Z,58.25
2019-01-23T21:16:19.733Z,64.05
2019-01-23T21:18:46.441Z,58.58
2019-01-23T21:21:13.135Z,64.27
2019-01-23T21:23:39.852Z,66.28
2019-01-23T21:26:06.555Z,66.33
2019-01-23T21:28:33.272Z,63.17
2019-01-23T21:30:59.967Z,62.38
2019-01-23T21:33:26.672Z,62.30
2019-01-23T21:35:53.381Z,64.03
2019-01-23T21:38:20.318Z,66.17
2019-01-23T21:40:47.017Z,62.20
2019-01-23T21:43:13.744Z,62.50
2019-01-23T21:45:40.509Z,63.52
2019-01-23T21:48:07.307Z,65.90
2019-01-23T21:50:34.072Z,66.02
2019-01-23T21:53:00.863Z,64.17
2019-01-23T21:55:27.581Z,66.75
2019-01-23T21:57:54.395Z,63.20
2019-01-23T22:00:24.091Z,65.20
2019-01-23T22:02:52.081Z,64.58
2019-01-23T22:05:18.983Z,62.73
2019-01-23T22:07:45.791Z,67.95
2019-01-23T22:10:12.891Z,65.25
2019-01-23T22:12:39.707Z,61.40
2019-01-23T22:15:10.636Z,62.65
2019-01-23T22:17:37.339Z,62.78
2019-01-23T22:20:04.671Z,64.92
2019-01-23T22:22:31.395Z,61.15
2019-01-23T22:24:58.095Z,58.17
2019-01-23T22:27:24.803Z,58.10
2019-01-23T22:29:51.507Z,57.03
2019-01-23T22:32:18.315Z,59.23
2019-01-23T22:34:45.035Z,59.60
2019-01-23T22:37:12.135Z,59.73
2019-01-23T22:39:38.843Z,60.30
2019-01-23T22:42:05.557Z,60.15
2019-01-23T22:44:32.256Z,59.03
2019-01-23T22:46:58.972Z,59.08
2019-01-23T22:49:25.670Z,59.08
2019-01-23T22:51:52.388Z,57.27
2019-01-23T22:54:19.191Z,61.30
2019-01-23T22:56:45.903Z,58.87
2019-01-23T22:59:12.603Z,59.70
2019-01-23T23:01:39.513Z,58.95
2019-01-23T23:04:06.215Z,57.35
2019-01-23T23:06:33.023Z,59.48
2019-01-23T23:08:59.928Z,63.00
2019-01-23T23:11:26.735Z,61.53
2019-01-23T23:13:53.647Z,60.52
2019-01-23T23:16:20.367Z,57.48
2019-01-23T23:18:47.279Z,59.90
2019-01-23T23:21:13.975Z,61.70
2019-01-23T23:23:40.779Z,57.25
2019-01-23T23:26:07.491Z,59.70
2019-01-23T23:28:34.199Z,59.50
2019-01-23T23:31:00.981Z,62.62
2019-01-23T23:33:27.723Z,61.20
2019-01-23T23:35:54.427Z,61.80
2019-01-23T23:38:21.555Z,60.33
2019-01-23T23:40:48.259Z,62.80
2019-01-23T23:43:14.958Z,58.50
2019-01-23T23:45:41.659Z,62.62
2019-01-23T23:48:08.356Z,60.50
2019-01-23T23:50:35.059Z,60.78
2019-01-23T23:53:02.000Z,60.63
2019-01-23T23:55:28.699Z,61.13
2019-01-23T23:57:55.428Z,60.80
